sensor_id;sensor_type;location;lat;lon;timestamp;temperature;humidity
46758;DHT22;32509;47.750;-3.396;2023-11-21T00:00:01;12.10;99.90
46758;DHT22;32509;47.750;-3.396;2023-11-21T00:02:27;12.20;99.90
46758;DHT22;32509;47.750;-3.396;2023-11-21T00:04:53;12.10;99.90
46758;DHT22;32509;47.750;-3.396;2023-11-21T00:07:19;12.10;99.90
46758;DHT22;32509;47.750;-3.396;2023-11-21T00:09:46;12.10;99.90
46758;DHT22;32509;47.750;-3.396;2023-11-21T00:12:12;12.10;99.90
46758;DHT22;32509;47.750;-3.396;2023-11-21T00:14:39;12.10;99.90
46758;DHT22;32509;47.750;-3.396;2023-11-21T00:17:05;12.00;99.90
46758;DHT22;32509;47.750;-3.396;2023-11-21T00:19:32;12.10;99.90
46758;DHT22;32509;47.750;-3.396;2023-11-21T00:21:58;12.10;99.90
46758;DHT22;32509;47.750;-3.396;2023-11-21T00:24:25;12.00;99.90
46758;DHT22;32509;47.750;-3.396;2023-11-21T00:26:51;12.10;99.90
46758;DHT22;32509;47.750;-3.396;2023-11-21T00:29:18;12.00;99.90
46758;DHT22;32509;47.750;-3.396;2023-11-21T00:31:44;12.10;99.90
46758;DHT22;32509;47.750;-3.396;2023-11-21T00:34:12;12.00;99.90
46758;DHT22;32509;47.750;-3.396;2023-11-21T00:36:37;12.00;99.90
46758;DHT22;32509;47.750;-3.396;2023-11-21T00:39:03;12.00;99.90
46758;DHT22;32509;47.750;-3.396;2023-11-21T00:41:31;11.90;99.90
46758;DHT22;32509;47.750;-3.396;2023-11-21T00:43:57;11.90;99.90
46758;DHT22;32509;47.750;-3.396;2023-11-21T00:46:25;11.90;99.90
46758;DHT22;32509;47.750;-3.396;2023-11-21T00:48:52;11.90;99.90
46758;DHT22;32509;47.750;-3.396;2023-11-21T00:51:20;11.90;99.90
46758;DHT22;32509;47.750;-3.396;2023-11-21T00:53:46;11.80;99.90
46758;DHT22;32509;47.750;-3.396;2023-11-21T00:56:12;11.90;99.90
46758;DHT22;32509;47.750;-3.396;2023-11-21T00:58:39;11.80;99.90
46758;DHT22;32509;47.750;-3.396;2023-11-21T01:01:09;11.90;99.90
46758;DHT22;32509;47.750;-3.396;2023-11-21T01:03:35;11.90;99.90
46758;DHT22;32509;47.750;-3.396;2023-11-21T01:06:00;11.90;99.90
46758;DHT22;32509;47.750;-3.396;2023-11-21T01:08:26;11.90;99.90
46758;DHT22;32509;47.750;-3.396;2023-11-21T01:10:52;11.90;99.90
46758;DHT22;32509;47.750;-3.396;2023-11-21T01:13:18;11.90;99.90
46758;DHT22;32509;47.750;-3.396;2023-11-21T01:15:44;11.90;99.90
46758;DHT22;32509;47.750;-3.396;2023-11-21T01:18:09;11.90;99.90
46758;DHT22;32509;47.750;-3.396;2023-11-21T01:20:35;11.90;99.90
46758;DHT22;32509;47.750;-3.396;2023-11-21T01:23:01;11.90;99.90
46758;DHT22;32509;47.750;-3.396;2023-11-21T01:25:27;11.90;99.90
46758;DHT22;32509;47.750;-3.396;2023-11-21T01:27:52;11.90;99.90
46758;DHT22;32509;47.750;-3.396;2023-11-21T01:30:18;11.80;99.90
46758;DHT22;32509;47.750;-3.396;2023-11-21T01:32:44;11.80;99.90
46758;DHT22;32509;47.750;-3.396;2023-11-21T01:35:10;11.80;99.90
46758;DHT22;32509;47.750;-3.396;2023-11-21T01:37:37;11.80;99.90
46758;DHT22;32509;47.750;-3.396;2023-11-21T01:40:03;11.80;99.90
46758;DHT22;32509;47.750;-3.396;2023-11-21T01:42:34;11.80;99.90
46758;DHT22;32509;47.750;-3.396;2023-11-21T01:45:00;11.90;99.90
46758;DHT22;32509;47.750;-3.396;2023-11-21T01:47:32;11.80;99.90
46758;DHT22;32509;47.750;-3.396;2023-11-21T01:49:58;11.80;99.90
46758;DHT22;32509;47.750;-3.396;2023-11-21T01:52:24;11.80;99.90
46758;DHT22;32509;47.750;-3.396;2023-11-21T01:54:50;11.70;99.90
46758;DHT22;32509;47.750;-3.396;2023-11-21T01:57:16;11.70;99.90
46758;DHT22;32509;47.750;-3.396;2023-11-21T01:59:42;11.70;99.90
46758;DHT22;32509;47.750;-3.396;2023-11-21T02:02:09;11.70;99.90
46758;DHT22;32509;47.750;-3.396;2023-11-21T02:04:36;11.80;99.90
46758;DHT22;32509;47.750;-3.396;2023-11-21T02:07:03;11.80;99.90
46758;DHT22;32509;47.750;-3.396;2023-11-21T02:09:32;11.80;99.90
46758;DHT22;32509;47.750;-3.396;2023-11-21T02:11:59;11.80;99.90
46758;DHT22;32509;47.750;-3.396;2023-11-21T02:14:26;11.90;99.90
46758;DHT22;32509;47.750;-3.396;2023-11-21T02:16:54;11.80;99.90
46758;DHT22;32509;47.750;-3.396;2023-11-21T02:19:21;11.80;99.90
46758;DHT22;32509;47.750;-3.396;2023-11-21T02:21:56;11.80;99.90
46758;DHT22;32509;47.750;-3.396;2023-11-21T02:24:26;11.80;99.90
46758;DHT22;32509;47.750;-3.396;2023-11-21T02:26:52;11.80;99.90
46758;DHT22;32509;47.750;-3.396;2023-11-21T02:29:19;11.80;99.90
46758;DHT22;32509;47.750;-3.396;2023-11-21T02:31:50;11.80;99.90
46758;DHT22;32509;47.750;-3.396;2023-11-21T02:34:17;11.80;99.90
46758;DHT22;32509;47.750;-3.396;2023-11-21T02:36:44;11.80;99.90
46758;DHT22;32509;47.750;-3.396;2023-11-21T02:39:10;11.90;99.90
46758;DHT22;32509;47.750;-3.396;2023-11-21T02:41:39;11.80;99.90
46758;DHT22;32509;47.750;-3.396;2023-11-21T02:44:06;11.90;99.90
46758;DHT22;32509;47.750;-3.396;2023-11-21T02:46:36;11.90;99.90
46758;DHT22;32509;47.750;-3.396;2023-11-21T02:49:04;11.90;99.90
46758;DHT22;32509;47.750;-3.396;2023-11-21T02:51:35;11.90;99.90
46758;DHT22;32509;47.750;-3.396;2023-11-21T02:54:05;11.90;99.90
46758;DHT22;32509;47.750;-3.396;2023-11-21T02:56:32;11.90;99.90
46758;DHT22;32509;47.750;-3.396;2023-11-21T02:59:01;11.90;99.90
46758;DHT22;32509;47.750;-3.396;2023-11-21T03:01:27;11.90;99.90
46758;DHT22;32509;47.750;-3.396;2023-11-21T03:03:53;11.90;99.90
46758;DHT22;32509;47.750;-3.396;2023-11-21T03:06:21;11.90;99.90
46758;DHT22;32509;47.750;-3.396;2023-11-21T03:08:47;11.90;99.90
46758;DHT22;32509;47.750;-3.396;2023-11-21T03:11:13;11.90;99.90
46758;DHT22;32509;47.750;-3.396;2023-11-21T03:13:40;11.80;99.90
46758;DHT22;32509;47.750;-3.396;2023-11-21T03:16:09;11.80;99.90
46758;DHT22;32509;47.750;-3.396;2023-11-21T03:18:36;11.80;99.90
46758;DHT22;32509;47.750;-3.396;2023-11-21T03:21:03;11.80;99.90
46758;DHT22;32509;47.750;-3.396;2023-11-21T03:23:29;11.80;99.90
46758;DHT22;32509;47.750;-3.396;2023-11-21T03:25:55;11.70;99.90
46758;DHT22;32509;47.750;-3.396;2023-11-21T03:28:20;11.70;99.90
46758;DHT22;32509;47.750;-3.396;2023-11-21T03:30:46;11.70;99.90
46758;DHT22;32509;47.750;-3.396;2023-11-21T03:33:12;11.70;99.90
46758;DHT22;32509;47.750;-3.396;2023-11-21T03:35:38;11.70;99.90
46758;DHT22;32509;47.750;-3.396;2023-11-21T03:38:04;11.70;99.90
46758;DHT22;32509;47.750;-3.396;2023-11-21T03:40:30;11.70;99.90
46758;DHT22;32509;47.750;-3.396;2023-11-21T03:42:57;11.70;99.90
46758;DHT22;32509;47.750;-3.396;2023-11-21T03:45:23;11.70;99.90
46758;DHT22;32509;47.750;-3.396;2023-11-21T03:47:50;11.70;99.90
46758;DHT22;32509;47.750;-3.396;2023-11-21T03:50:15;11.70;99.90
46758;DHT22;32509;47.750;-3.396;2023-11-21T03:52:44;11.60;99.90
46758;DHT22;32509;47.750;-3.396;2023-11-21T03:55:10;11.60;99.90
46758;DHT22;32509;47.750;-3.396;2023-11-21T03:57:36;11.60;99.90
46758;DHT22;32509;47.750;-3.396;2023-11-21T04:00:03;11.60;99.90
46758;DHT22;32509;47.750;-3.396;2023-11-21T04:02:34;11.60;99.90
46758;DHT22;32509;47.750;-3.396;2023-11-21T04:05:00;11.60;99.90
46758;DHT22;32509;47.750;-3.396;2023-11-21T04:07:26;11.60;99.90
46758;DHT22;32509;47.750;-3.396;2023-11-21T04:09:52;11.50;99.90
46758;DHT22;32509;47.750;-3.396;2023-11-21T04:12:19;11.50;99.90
46758;DHT22;32509;47.750;-3.396;2023-11-21T04:14:45;11.50;99.90
46758;DHT22;32509;47.750;-3.396;2023-11-21T04:17:13;11.50;99.90
46758;DHT22;32509;47.750;-3.396;2023-11-21T04:19:39;11.40;99.90
46758;DHT22;32509;47.750;-3.396;2023-11-21T04:22:05;11.40;99.90
46758;DHT22;32509;47.750;-3.396;2023-11-21T04:24:31;11.40;99.90
46758;DHT22;32509;47.750;-3.396;2023-11-21T04:27:06;11.40;99.90
46758;DHT22;32509;47.750;-3.396;2023-11-21T04:29:32;11.30;99.90
46758;DHT22;32509;47.750;-3.396;2023-11-21T04:31:57;11.40;99.90
46758;DHT22;32509;47.750;-3.396;2023-11-21T04:34:23;11.40;99.90
46758;DHT22;32509;47.750;-3.396;2023-11-21T04:36:50;11.40;99.90
46758;DHT22;32509;47.750;-3.396;2023-11-21T04:39:15;11.40;99.90
46758;DHT22;32509;47.750;-3.396;2023-11-21T04:41:41;11.40;99.90
46758;DHT22;32509;47.750;-3.396;2023-11-21T04:44:08;11.40;99.90
46758;DHT22;32509;47.750;-3.396;2023-11-21T04:46:34;11.40;99.90
46758;DHT22;32509;47.750;-3.396;2023-11-21T04:49:00;11.30;99.90
46758;DHT22;32509;47.750;-3.396;2023-11-21T04:51:26;11.40;99.90
46758;DHT22;32509;47.750;-3.396;2023-11-21T04:53:54;11.30;99.90
46758;DHT22;32509;47.750;-3.396;2023-11-21T04:56:20;11.30;99.90
46758;DHT22;32509;47.750;-3.396;2023-11-21T04:58:46;11.30;99.90
46758;DHT22;32509;47.750;-3.396;2023-11-21T05:01:12;11.30;99.90
46758;DHT22;32509;47.750;-3.396;2023-11-21T05:03:37;11.30;99.90
46758;DHT22;32509;47.750;-3.396;2023-11-21T05:06:04;11.30;99.90
46758;DHT22;32509;47.750;-3.396;2023-11-21T05:08:30;11.30;99.90
46758;DHT22;32509;47.750;-3.396;2023-11-21T05:10:57;11.40;99.90
46758;DHT22;32509;47.750;-3.396;2023-11-21T05:13:22;11.40;99.90
46758;DHT22;32509;47.750;-3.396;2023-11-21T05:16:00;11.40;99.90
46758;DHT22;32509;47.750;-3.396;2023-11-21T05:18:26;11.40;99.90
46758;DHT22;32509;47.750;-3.396;2023-11-21T05:20:55;11.40;99.90
46758;DHT22;32509;47.750;-3.396;2023-11-21T05:23:21;11.50;99.90
46758;DHT22;32509;47.750;-3.396;2023-11-21T05:25:47;11.50;99.90
46758;DHT22;32509;47.750;-3.396;2023-11-21T05:28:16;11.50;99.90
46758;DHT22;32509;47.750;-3.396;2023-11-21T05:30:42;11.50;99.90
46758;DHT22;32509;47.750;-3.396;2023-11-21T05:33:09;11.50;99.90
46758;DHT22;32509;47.750;-3.396;2023-11-21T05:35:35;11.40;99.90
46758;DHT22;32509;47.750;-3.396;2023-11-21T05:38:01;11.50;99.90
46758;DHT22;32509;47.750;-3.396;2023-11-21T05:40:27;11.50;99.90
46758;DHT22;32509;47.750;-3.396;2023-11-21T05:42:55;11.50;99.90
46758;DHT22;32509;47.750;-3.396;2023-11-21T05:45:21;11.50;99.90
46758;DHT22;32509;47.750;-3.396;2023-11-21T05:47:47;11.50;99.90
46758;DHT22;32509;47.750;-3.396;2023-11-21T05:50:14;11.50;99.90
46758;DHT22;32509;47.750;-3.396;2023-11-21T05:52:45;11.50;99.90
46758;DHT22;32509;47.750;-3.396;2023-11-21T05:55:12;11.50;99.90
46758;DHT22;32509;47.750;-3.396;2023-11-21T05:57:42;11.60;99.90
46758;DHT22;32509;47.750;-3.396;2023-11-21T06:00:12;11.60;99.90
46758;DHT22;32509;47.750;-3.396;2023-11-21T06:02:57;11.60;99.90
46758;DHT22;32509;47.750;-3.396;2023-11-21T06:05:25;11.50;99.90
46758;DHT22;32509;47.750;-3.396;2023-11-21T06:07:55;11.50;99.90
46758;DHT22;32509;47.750;-3.396;2023-11-21T06:10:24;11.50;99.90
46758;DHT22;32509;47.750;-3.396;2023-11-21T06:12:51;11.50;99.90
46758;DHT22;32509;47.750;-3.396;2023-11-21T06:15:19;11.50;99.90
46758;DHT22;32509;47.750;-3.396;2023-11-21T06:17:46;11.50;99.90
46758;DHT22;32509;47.750;-3.396;2023-11-21T06:20:15;11.40;99.90
46758;DHT22;32509;47.750;-3.396;2023-11-21T06:22:48;11.40;99.90
46758;DHT22;32509;47.750;-3.396;2023-11-21T06:25:16;11.40;99.90
46758;DHT22;32509;47.750;-3.396;2023-11-21T06:27:47;11.40;99.90
46758;DHT22;32509;47.750;-3.396;2023-11-21T06:30:14;11.40;99.90
46758;DHT22;32509;47.750;-3.396;2023-11-21T06:32:41;11.30;99.90
46758;DHT22;32509;47.750;-3.396;2023-11-21T06:35:08;11.30;99.90
46758;DHT22;32509;47.750;-3.396;2023-11-21T06:37:36;11.30;99.90
46758;DHT22;32509;47.750;-3.396;2023-11-21T06:40:03;11.30;99.90
46758;DHT22;32509;47.750;-3.396;2023-11-21T06:42:32;11.30;99.90
46758;DHT22;32509;47.750;-3.396;2023-11-21T06:44:59;11.30;99.90
46758;DHT22;32509;47.750;-3.396;2023-11-21T06:47:29;11.30;99.90
46758;DHT22;32509;47.750;-3.396;2023-11-21T06:49:56;11.40;99.90
46758;DHT22;32509;47.750;-3.396;2023-11-21T06:52:22;11.40;99.90
46758;DHT22;32509;47.750;-3.396;2023-11-21T06:54:48;11.40;99.90
46758;DHT22;32509;47.750;-3.396;2023-11-21T06:57:17;11.40;99.90
46758;DHT22;32509;47.750;-3.396;2023-11-21T06:59:43;11.40;99.90
46758;DHT22;32509;47.750;-3.396;2023-11-21T07:02:09;11.40;99.90
46758;DHT22;32509;47.750;-3.396;2023-11-21T07:04:38;11.40;99.90
46758;DHT22;32509;47.750;-3.396;2023-11-21T07:07:04;11.30;99.90
46758;DHT22;32509;47.750;-3.396;2023-11-21T07:09:32;11.30;99.90
46758;DHT22;32509;47.750;-3.396;2023-11-21T07:11:58;11.30;99.90
46758;DHT22;32509;47.750;-3.396;2023-11-21T07:14:24;11.20;99.90
46758;DHT22;32509;47.750;-3.396;2023-11-21T07:16:50;11.20;99.90
46758;DHT22;32509;47.750;-3.396;2023-11-21T07:19:20;11.20;99.90
46758;DHT22;32509;47.750;-3.396;2023-11-21T07:21:46;11.20;99.90
46758;DHT22;32509;47.750;-3.396;2023-11-21T07:24:12;11.10;99.90
46758;DHT22;32509;47.750;-3.396;2023-11-21T07:26:38;11.20;99.90
46758;DHT22;32509;47.750;-3.396;2023-11-21T07:29:04;11.20;99.90
46758;DHT22;32509;47.750;-3.396;2023-11-21T07:31:30;11.20;99.90
46758;DHT22;32509;47.750;-3.396;2023-11-21T07:33:57;11.20;99.90
46758;DHT22;32509;47.750;-3.396;2023-11-21T07:36:23;11.20;99.90
46758;DHT22;32509;47.750;-3.396;2023-11-21T07:38:50;11.20;99.90
46758;DHT22;32509;47.750;-3.396;2023-11-21T07:41:16;11.20;99.90
46758;DHT22;32509;47.750;-3.396;2023-11-21T07:43:43;11.20;99.90
46758;DHT22;32509;47.750;-3.396;2023-11-21T07:46:10;11.20;99.90
46758;DHT22;32509;47.750;-3.396;2023-11-21T07:48:41;11.20;99.90
46758;DHT22;32509;47.750;-3.396;2023-11-21T07:51:08;11.20;99.90
46758;DHT22;32509;47.750;-3.396;2023-11-21T07:53:35;11.20;99.90
46758;DHT22;32509;47.750;-3.396;2023-11-21T07:56:05;11.20;99.90
46758;DHT22;32509;47.750;-3.396;2023-11-21T07:58:32;11.20;99.90
46758;DHT22;32509;47.750;-3.396;2023-11-21T08:01:01;11.20;99.90
46758;DHT22;32509;47.750;-3.396;2023-11-21T08:03:27;11.20;99.90
46758;DHT22;32509;47.750;-3.396;2023-11-21T08:05:55;11.20;99.90
46758;DHT22;32509;47.750;-3.396;2023-11-21T08:08:23;11.20;99.90
46758;DHT22;32509;47.750;-3.396;2023-11-21T08:10:50;11.20;99.90
46758;DHT22;32509;47.750;-3.396;2023-11-21T08:13:30;11.20;99.90
46758;DHT22;32509;47.750;-3.396;2023-11-21T08:15:59;11.20;99.90
46758;DHT22;32509;47.750;-3.396;2023-11-21T08:18:28;11.30;99.90
46758;DHT22;32509;47.750;-3.396;2023-11-21T08:20:55;11.30;99.90
46758;DHT22;32509;47.750;-3.396;2023-11-21T08:23:21;11.30;99.90
46758;DHT22;32509;47.750;-3.396;2023-11-21T08:25:51;11.30;99.90
46758;DHT22;32509;47.750;-3.396;2023-11-21T08:28:17;11.30;99.90
46758;DHT22;32509;47.750;-3.396;2023-11-21T08:30:43;11.30;99.90
46758;DHT22;32509;47.750;-3.396;2023-11-21T08:33:09;11.30;99.90
46758;DHT22;32509;47.750;-3.396;2023-11-21T08:35:37;11.40;99.90
46758;DHT22;32509;47.750;-3.396;2023-11-21T08:38:03;11.40;99.90
46758;DHT22;32509;47.750;-3.396;2023-11-21T08:40:30;11.40;99.90
46758;DHT22;32509;47.750;-3.396;2023-11-21T08:42:56;11.50;99.90
46758;DHT22;32509;47.750;-3.396;2023-11-21T08:45:24;11.50;99.90
46758;DHT22;32509;47.750;-3.396;2023-11-21T08:47:51;11.60;99.90
46758;DHT22;32509;47.750;-3.396;2023-11-21T08:50:17;11.60;99.90
46758;DHT22;32509;47.750;-3.396;2023-11-21T08:52:44;11.60;99.90
46758;DHT22;32509;47.750;-3.396;2023-11-21T08:55:11;11.70;99.90
46758;DHT22;32509;47.750;-3.396;2023-11-21T08:57:40;11.70;99.90
46758;DHT22;32509;47.750;-3.396;2023-11-21T09:00:10;11.80;99.90
46758;DHT22;32509;47.750;-3.396;2023-11-21T09:02:40;11.70;99.90
46758;DHT22;32509;47.750;-3.396;2023-11-21T09:05:12;11.80;99.90
46758;DHT22;32509;47.750;-3.396;2023-11-21T09:07:40;11.80;99.90
46758;DHT22;32509;47.750;-3.396;2023-11-21T09:10:06;11.80;99.90
46758;DHT22;32509;47.750;-3.396;2023-11-21T09:12:33;11.80;99.90
46758;DHT22;32509;47.750;-3.396;2023-11-21T09:15:05;11.90;99.90
46758;DHT22;32509;47.750;-3.396;2023-11-21T09:17:34;11.80;99.90
46758;DHT22;32509;47.750;-3.396;2023-11-21T09:20:00;11.80;99.90
46758;DHT22;32509;47.750;-3.396;2023-11-21T09:22:25;11.90;99.90
46758;DHT22;32509;47.750;-3.396;2023-11-21T09:24:52;11.90;99.90
46758;DHT22;32509;47.750;-3.396;2023-11-21T09:27:19;11.90;99.90
46758;DHT22;32509;47.750;-3.396;2023-11-21T09:29:45;11.90;99.90
46758;DHT22;32509;47.750;-3.396;2023-11-21T09:32:13;12.00;99.90
46758;DHT22;32509;47.750;-3.396;2023-11-21T09:34:41;12.10;99.90
46758;DHT22;32509;47.750;-3.396;2023-11-21T09:37:07;12.10;99.90
46758;DHT22;32509;47.750;-3.396;2023-11-21T09:39:34;12.10;99.90
46758;DHT22;32509;47.750;-3.396;2023-11-21T09:42:10;12.20;99.90
46758;DHT22;32509;47.750;-3.396;2023-11-21T09:47:07;12.30;99.90
46758;DHT22;32509;47.750;-3.396;2023-11-21T09:49:37;12.20;99.90
46758;DHT22;32509;47.750;-3.396;2023-11-21T09:52:04;12.30;99.90
46758;DHT22;32509;47.750;-3.396;2023-11-21T09:54:32;12.30;99.90
46758;DHT22;32509;47.750;-3.396;2023-11-21T09:56:59;12.30;99.90
46758;DHT22;32509;47.750;-3.396;2023-11-21T09:59:30;12.30;99.90
46758;DHT22;32509;47.750;-3.396;2023-11-21T10:01:59;12.40;99.90
46758;DHT22;32509;47.750;-3.396;2023-11-21T10:04:25;12.50;99.90
46758;DHT22;32509;47.750;-3.396;2023-11-21T10:06:53;12.50;99.90
46758;DHT22;32509;47.750;-3.396;2023-11-21T10:09:21;12.50;99.90
46758;DHT22;32509;47.750;-3.396;2023-11-21T10:11:49;12.60;99.90
46758;DHT22;32509;47.750;-3.396;2023-11-21T10:14:19;12.60;99.90
46758;DHT22;32509;47.750;-3.396;2023-11-21T10:16:48;12.60;99.90
46758;DHT22;32509;47.750;-3.396;2023-11-21T10:19:15;12.70;99.90
46758;DHT22;32509;47.750;-3.396;2023-11-21T10:21:42;12.70;99.90
46758;DHT22;32509;47.750;-3.396;2023-11-21T10:24:08;12.70;99.90
46758;DHT22;32509;47.750;-3.396;2023-11-21T10:26:34;12.70;99.90
46758;DHT22;32509;47.750;-3.396;2023-11-21T10:29:03;12.80;99.90
46758;DHT22;32509;47.750;-3.396;2023-11-21T10:31:33;12.80;99.90
46758;DHT22;32509;47.750;-3.396;2023-11-21T10:34:31;12.80;99.90
46758;DHT22;32509;47.750;-3.396;2023-11-21T10:36:57;12.90;99.90
46758;DHT22;32509;47.750;-3.396;2023-11-21T10:39:24;12.90;99.90
46758;DHT22;32509;47.750;-3.396;2023-11-21T10:41:54;12.90;99.90
46758;DHT22;32509;47.750;-3.396;2023-11-21T10:44:20;13.00;99.90
46758;DHT22;32509;47.750;-3.396;2023-11-21T10:46:50;13.00;99.90
46758;DHT22;32509;47.750;-3.396;2023-11-21T10:49:18;12.90;99.90
46758;DHT22;32509;47.750;-3.396;2023-11-21T10:51:45;13.00;99.90
46758;DHT22;32509;47.750;-3.396;2023-11-21T10:54:10;13.00;99.90
46758;DHT22;32509;47.750;-3.396;2023-11-21T10:56:39;13.00;99.90
46758;DHT22;32509;47.750;-3.396;2023-11-21T10:59:10;13.00;99.90
46758;DHT22;32509;47.750;-3.396;2023-11-21T11:01:46;12.90;99.90
46758;DHT22;32509;47.750;-3.396;2023-11-21T11:04:14;12.90;99.90
46758;DHT22;32509;47.750;-3.396;2023-11-21T11:06:50;13.00;99.90
46758;DHT22;32509;47.750;-3.396;2023-11-21T11:09:17;13.00;99.90
46758;DHT22;32509;47.750;-3.396;2023-11-21T11:11:43;13.00;99.90
46758;DHT22;32509;47.750;-3.396;2023-11-21T11:14:12;13.00;99.90
46758;DHT22;32509;47.750;-3.396;2023-11-21T11:16:39;13.00;99.90
46758;DHT22;32509;47.750;-3.396;2023-11-21T11:19:09;13.00;99.90
46758;DHT22;32509;47.750;-3.396;2023-11-21T11:33:07;13.20;99.90
46758;DHT22;32509;47.750;-3.396;2023-11-21T11:35:52;13.20;99.90
46758;DHT22;32509;47.750;-3.396;2023-11-21T11:38:21;13.20;99.90
46758;DHT22;32509;47.750;-3.396;2023-11-21T11:40:52;13.20;99.90
46758;DHT22;32509;47.750;-3.396;2023-11-21T11:43:26;13.30;99.90
46758;DHT22;32509;47.750;-3.396;2023-11-21T11:45:55;13.20;99.90
46758;DHT22;32509;47.750;-3.396;2023-11-21T11:48:22;13.20;99.90
46758;DHT22;32509;47.750;-3.396;2023-11-21T11:51:11;13.20;99.90
46758;DHT22;32509;47.750;-3.396;2023-11-21T11:53:41;13.20;99.90
46758;DHT22;32509;47.750;-3.396;2023-11-21T11:58:55;13.30;99.90
46758;DHT22;32509;47.750;-3.396;2023-11-21T12:01:21;13.30;99.90
46758;DHT22;32509;47.750;-3.396;2023-11-21T12:06:52;13.40;99.90
46758;DHT22;32509;47.750;-3.396;2023-11-21T12:09:20;13.40;99.90
46758;DHT22;32509;47.750;-3.396;2023-11-21T12:11:47;13.30;99.90
46758;DHT22;32509;47.750;-3.396;2023-11-21T12:14:14;13.30;99.90
46758;DHT22;32509;47.750;-3.396;2023-11-21T12:16:40;13.30;99.90
46758;DHT22;32509;47.750;-3.396;2023-11-21T12:19:08;13.40;99.90
46758;DHT22;32509;47.750;-3.396;2023-11-21T12:21:36;13.40;99.90
46758;DHT22;32509;47.750;-3.396;2023-11-21T12:24:02;13.30;99.90
46758;DHT22;32509;47.750;-3.396;2023-11-21T12:26:28;13.30;99.90
46758;DHT22;32509;47.750;-3.396;2023-11-21T12:28:54;13.30;99.90
46758;DHT22;32509;47.750;-3.396;2023-11-21T12:31:24;13.40;99.90
46758;DHT22;32509;47.750;-3.396;2023-11-21T12:33:50;13.30;99.90
46758;DHT22;32509;47.750;-3.396;2023-11-21T12:36:16;13.30;99.90
46758;DHT22;32509;47.750;-3.396;2023-11-21T12:38:42;13.40;99.90
46758;DHT22;32509;47.750;-3.396;2023-11-21T12:41:09;13.40;99.90
46758;DHT22;32509;47.750;-3.396;2023-11-21T12:43:36;13.40;99.90
46758;DHT22;32509;47.750;-3.396;2023-11-21T12:46:06;13.40;99.90
46758;DHT22;32509;47.750;-3.396;2023-11-21T12:48:32;13.50;99.90
46758;DHT22;32509;47.750;-3.396;2023-11-21T12:50:58;13.50;99.90
46758;DHT22;32509;47.750;-3.396;2023-11-21T12:53:26;13.50;99.90
46758;DHT22;32509;47.750;-3.396;2023-11-21T12:55:52;13.50;99.90
46758;DHT22;32509;47.750;-3.396;2023-11-21T12:58:24;13.50;99.90
46758;DHT22;32509;47.750;-3.396;2023-11-21T13:00:51;13.50;99.90
46758;DHT22;32509;47.750;-3.396;2023-11-21T13:03:19;13.40;99.90
46758;DHT22;32509;47.750;-3.396;2023-11-21T13:05:51;13.40;99.90
46758;DHT22;32509;47.750;-3.396;2023-11-21T13:08:20;13.40;99.90
46758;DHT22;32509;47.750;-3.396;2023-11-21T13:10:50;13.40;99.90
46758;DHT22;32509;47.750;-3.396;2023-11-21T13:13:16;13.40;99.90
46758;DHT22;32509;47.750;-3.396;2023-11-21T13:15:57;13.40;99.90
46758;DHT22;32509;47.750;-3.396;2023-11-21T13:18:27;13.40;99.90
46758;DHT22;32509;47.750;-3.396;2023-11-21T13:21:01;13.40;99.90
46758;DHT22;32509;47.750;-3.396;2023-11-21T13:23:28;13.40;99.90
46758;DHT22;32509;47.750;-3.396;2023-11-21T13:25:57;13.40;99.90
46758;DHT22;32509;47.750;-3.396;2023-11-21T13:28:23;13.40;99.90
46758;DHT22;32509;47.750;-3.396;2023-11-21T13:30:52;13.40;99.90
46758;DHT22;32509;47.750;-3.396;2023-11-21T13:33:18;13.40;99.90
46758;DHT22;32509;47.750;-3.396;2023-11-21T13:35:47;13.40;99.90
46758;DHT22;32509;47.750;-3.396;2023-11-21T13:38:18;13.40;99.90
46758;DHT22;32509;47.750;-3.396;2023-11-21T13:40:52;13.30;99.90
46758;DHT22;32509;47.750;-3.396;2023-11-21T13:43:23;13.30;99.90
46758;DHT22;32509;47.750;-3.396;2023-11-21T13:45:52;13.30;99.90
46758;DHT22;32509;47.750;-3.396;2023-11-21T13:48:25;13.30;99.90
46758;DHT22;32509;47.750;-3.396;2023-11-21T13:50:57;13.40;99.90
46758;DHT22;32509;47.750;-3.396;2023-11-21T13:53:34;13.30;99.90
46758;DHT22;32509;47.750;-3.396;2023-11-21T13:56:03;13.30;99.90
46758;DHT22;32509;47.750;-3.396;2023-11-21T13:58:29;13.30;99.90
46758;DHT22;32509;47.750;-3.396;2023-11-21T14:01:16;13.30;99.90
46758;DHT22;32509;47.750;-3.396;2023-11-21T14:03:58;13.30;99.90
46758;DHT22;32509;47.750;-3.396;2023-11-21T14:06:37;13.30;99.90
46758;DHT22;32509;47.750;-3.396;2023-11-21T14:09:19;13.30;99.90
46758;DHT22;32509;47.750;-3.396;2023-11-21T14:11:55;13.30;99.90
46758;DHT22;32509;47.750;-3.396;2023-11-21T14:14:23;13.30;99.90
46758;DHT22;32509;47.750;-3.396;2023-11-21T14:16:51;13.20;99.90
46758;DHT22;32509;47.750;-3.396;2023-11-21T14:19:17;13.20;99.90
46758;DHT22;32509;47.750;-3.396;2023-11-21T14:21:47;13.20;99.90
46758;DHT22;32509;47.750;-3.396;2023-11-21T14:24:14;13.20;99.90
46758;DHT22;32509;47.750;-3.396;2023-11-21T14:26:44;13.20;99.90
46758;DHT22;32509;47.750;-3.396;2023-11-21T14:29:12;13.20;99.90
46758;DHT22;32509;47.750;-3.396;2023-11-21T14:31:40;13.20;99.90
46758;DHT22;32509;47.750;-3.396;2023-11-21T14:34:07;13.20;99.90
46758;DHT22;32509;47.750;-3.396;2023-11-21T14:36:34;13.20;99.90
46758;DHT22;32509;47.750;-3.396;2023-11-21T14:39:01;13.30;99.90
46758;DHT22;32509;47.750;-3.396;2023-11-21T14:41:26;13.40;99.90
46758;DHT22;32509;47.750;-3.396;2023-11-21T14:43:54;13.30;99.90
46758;DHT22;32509;47.750;-3.396;2023-11-21T14:46:21;13.30;99.90
46758;DHT22;32509;47.750;-3.396;2023-11-21T14:48:46;13.40;99.90
46758;DHT22;32509;47.750;-3.396;2023-11-21T14:51:27;13.40;99.90
46758;DHT22;32509;47.750;-3.396;2023-11-21T14:53:57;13.40;99.90
46758;DHT22;32509;47.750;-3.396;2023-11-21T14:56:29;13.30;99.90
46758;DHT22;32509;47.750;-3.396;2023-11-21T14:58:57;13.30;99.90
46758;DHT22;32509;47.750;-3.396;2023-11-21T15:01:25;13.30;99.90
46758;DHT22;32509;47.750;-3.396;2023-11-21T15:04:10;13.20;99.90
46758;DHT22;32509;47.750;-3.396;2023-11-21T15:06:49;13.20;99.90
46758;DHT22;32509;47.750;-3.396;2023-11-21T15:09:18;13.20;99.90
46758;DHT22;32509;47.750;-3.396;2023-11-21T15:11:43;13.20;99.90
46758;DHT22;32509;47.750;-3.396;2023-11-21T15:14:09;13.10;99.90
46758;DHT22;32509;47.750;-3.396;2023-11-21T15:16:38;13.10;99.90
46758;DHT22;32509;47.750;-3.396;2023-11-21T15:19:08;13.10;99.90
46758;DHT22;32509;47.750;-3.396;2023-11-21T15:21:36;13.20;99.90
46758;DHT22;32509;47.750;-3.396;2023-11-21T15:24:01;13.20;99.90
46758;DHT22;32509;47.750;-3.396;2023-11-21T15:26:28;13.10;99.90
46758;DHT22;32509;47.750;-3.396;2023-11-21T15:28:54;13.10;99.90
46758;DHT22;32509;47.750;-3.396;2023-11-21T15:31:19;13.10;99.90
46758;DHT22;32509;47.750;-3.396;2023-11-21T15:33:51;13.10;99.90
46758;DHT22;32509;47.750;-3.396;2023-11-21T15:36:18;13.20;99.90
46758;DHT22;32509;47.750;-3.396;2023-11-21T15:38:45;13.10;99.90